createdAt,value
2022-10-05T00:00:54.992Z,3.94
2022-10-05T00:03:37.063Z,3.92
2022-10-05T00:06:05.437Z,3.97
2022-10-05T00:08:35.378Z,3.96
2022-10-05T00:11:07.639Z,3.97
2022-10-05T00:13:35.622Z,3.96
2022-10-05T00:16:19.377Z,3.95
2022-10-05T00:18:53.185Z,3.96
2022-10-05T00:21:24.298Z,3.99
2022-10-05T00:23:55.911Z,3.99
2022-10-05T00:26:26.309Z,4.01
2022-10-05T00:28:54.907Z,4.03
2022-10-05T00:31:25.104Z,4.05
2022-10-05T00:33:55.062Z,4.03
2022-10-05T00:36:23.559Z,4.01
2022-10-05T00:38:52.102Z,4.00
2022-10-05T00:41:54.129Z,4.02
2022-10-05T00:44:48.019Z,4.01
2022-10-05T00:47:27.840Z,4.00
2022-10-05T00:50:03.317Z,4.02
2022-10-05T00:52:54.886Z,4.01
2022-10-05T00:55:33.503Z,4.03
2022-10-05T00:58:15.944Z,4.00
2022-10-05T01:01:04.670Z,3.96
2022-10-05T01:04:07.099Z,3.94
2022-10-05T01:07:09.956Z,3.92
2022-10-05T01:09:53.345Z,3.89
2022-10-05T01:12:38.021Z,3.83
2022-10-05T01:15:06.501Z,3.79
2022-10-05T01:18:08.504Z,3.75
2022-10-05T01:20:59.858Z,3.78
2022-10-05T01:23:37.554Z,3.75
2022-10-05T01:26:27.150Z,3.70
2022-10-05T01:29:08.463Z,3.69
2022-10-05T01:32:26.059Z,3.68
2022-10-05T01:34:59.294Z,3.78
2022-10-05T01:37:39.384Z,3.87
2022-10-05T01:40:21.951Z,3.87
2022-10-05T01:42:52.339Z,3.83
2022-10-05T01:45:26.640Z,3.77
2022-10-05T01:48:07.843Z,3.73
2022-10-05T01:51:09.216Z,3.71
2022-10-05T01:54:15.701Z,3.68
2022-10-05T01:56:58.463Z,3.70
2022-10-05T01:59:40.857Z,3.68
2022-10-05T02:02:12.399Z,3.67
2022-10-05T02:05:04.683Z,3.66
2022-10-05T02:07:36.790Z,3.71
2022-10-05T02:10:33.070Z,3.71
2022-10-05T02:13:15.719Z,3.80
2022-10-05T02:15:54.730Z,3.93
2022-10-05T02:18:30.618Z,4.04
2022-10-05T02:21:03.124Z,4.12
2022-10-05T02:23:39.168Z,4.09
2022-10-05T02:26:11.222Z,4.03
2022-10-05T02:28:58.935Z,4.02
2022-10-05T02:31:54.966Z,4.08
2022-10-05T02:34:39.594Z,4.08
2022-10-05T02:38:08.669Z,4.00
2022-10-05T02:40:58.610Z,3.95
2022-10-05T02:43:53.962Z,3.91
2022-10-05T02:46:35.034Z,3.93
2022-10-05T02:49:40.276Z,4.03
2022-10-05T02:52:18.934Z,4.16
2022-10-05T02:54:49.429Z,4.13
2022-10-05T02:57:31.423Z,4.13
2022-10-05T03:00:40.091Z,4.13
2022-10-05T03:03:23.519Z,4.13
2022-10-05T03:06:12.446Z,4.11
2022-10-05T03:08:49.905Z,4.17
2022-10-05T03:11:41.299Z,4.27
2022-10-05T03:14:12.054Z,4.27
2022-10-05T03:17:04.554Z,4.26
2022-10-05T03:19:45.880Z,4.27
2022-10-05T03:22:20.152Z,4.31
2022-10-05T03:24:55.214Z,4.34
2022-10-05T03:27:33.513Z,4.35
2022-10-05T03:30:18.435Z,4.39
2022-10-05T03:33:25.704Z,4.47
2022-10-05T03:36:06.800Z,4.56
2022-10-05T03:38:37.564Z,4.64
2022-10-05T03:41:33.082Z,4.65
2022-10-05T03:44:15.711Z,4.60
2022-10-05T03:46:58.495Z,4.57
2022-10-05T03:49:47.987Z,4.53
2022-10-05T03:52:22.257Z,4.45
2022-10-05T03:54:58.159Z,4.40
2022-10-05T03:57:35.165Z,4.36
2022-10-05T04:00:06.511Z,4.35
2022-10-05T04:03:28.181Z,4.36
2022-10-05T04:06:03.520Z,4.45
2022-10-05T04:08:52.483Z,4.52
2022-10-05T04:11:29.037Z,4.60
2022-10-05T04:14:06.259Z,4.64
2022-10-05T04:17:17.855Z,4.59
2022-10-05T04:20:02.072Z,4.46
2022-10-05T04:22:39.383Z,4.40
2022-10-05T04:25:10.334Z,4.39
2022-10-05T04:27:42.835Z,4.40
2022-10-05T04:30:17.998Z,4.46
2022-10-05T04:32:50.377Z,4.53
2022-10-05T04:35:54.466Z,4.55
2022-10-05T04:38:58.955Z,4.66
2022-10-05T04:41:29.927Z,4.72
2022-10-05T04:44:28.334Z,4.74
2022-10-05T04:47:22.418Z,4.72
2022-10-05T04:50:11.985Z,4.80
2022-10-05T04:53:24.092Z,4.84
2022-10-05T04:55:58.404Z,4.78
2022-10-05T04:58:26.747Z,4.75
2022-10-05T05:00:55.331Z,4.73
2022-10-05T05:03:38.937Z,4.72
2022-10-05T05:06:52.670Z,4.80
2022-10-05T05:09:39.355Z,4.90
2022-10-05T05:12:22.499Z,5.03
2022-10-05T05:14:53.204Z,5.13
2022-10-05T05:17:48.313Z,5.16
2022-10-05T05:20:27.305Z,5.16
2022-10-05T05:23:13.080Z,5.12
2022-10-05T05:25:53.078Z,5.11
2022-10-05T05:28:42.392Z,5.20
2022-10-05T05:31:32.644Z,5.30
2022-10-05T05:34:23.938Z,5.39
2022-10-05T05:37:13.293Z,5.48
2022-10-05T05:40:01.936Z,5.61
2022-10-05T05:43:00.526Z,5.75
2022-10-05T05:45:44.094Z,5.89
2022-10-05T05:48:18.662Z,6.02
2022-10-05T05:50:49.565Z,6.12
2022-10-05T05:53:44.651Z,6.12
2022-10-05T05:56:21.722Z,6.09
2022-10-05T05:59:23.675Z,6.09
2022-10-05T06:01:59.862Z,6.18
2022-10-05T06:04:37.712Z,6.32
2022-10-05T06:07:06.602Z,6.51
2022-10-05T06:09:47.356Z,6.62
2022-10-05T06:12:34.786Z,6.78
2022-10-05T06:15:22.810Z,6.93
2022-10-05T06:17:54.908Z,7.07
2022-10-05T06:20:56.052Z,7.24
2022-10-05T06:23:43.277Z,7.42
2022-10-05T06:26:18.542Z,7.56
2022-10-05T06:28:58.060Z,7.66
2022-10-05T06:32:05.110Z,7.78
2022-10-05T06:34:52.088Z,7.94
2022-10-05T06:37:34.201Z,8.08
2022-10-05T06:40:34.202Z,8.19
2022-10-05T06:43:29.912Z,8.30
2022-10-05T06:46:23.579Z,8.45
2022-10-05T06:49:16.081Z,8.61
2022-10-05T06:52:26.633Z,8.76
2022-10-05T06:55:14.050Z,8.93
2022-10-05T06:58:24.239Z,9.07
2022-10-05T07:01:37.073Z,9.21
2022-10-05T07:04:59.005Z,9.31
2022-10-05T07:07:45.597Z,9.48
2022-10-05T07:10:34.741Z,9.63
2022-10-05T07:13:47.304Z,9.79
2022-10-05T07:16:27.026Z,9.98
2022-10-05T07:18:56.123Z,10.12
2022-10-05T07:21:39.539Z,10.21
2022-10-05T07:24:43.181Z,10.31
2022-10-05T07:27:18.588Z,10.41
2022-10-05T07:30:01.769Z,10.50
2022-10-05T07:32:50.255Z,10.63
2022-10-05T07:35:54.796Z,10.80
2022-10-05T07:38:38.030Z,10.92
2022-10-05T07:41:15.101Z,11.05
2022-10-05T07:44:02.128Z,11.16
2022-10-05T07:46:50.060Z,11.29
2022-10-05T07:49:44.428Z,11.42
2022-10-05T07:52:17.252Z,11.52
2022-10-05T07:54:54.368Z,11.64
2022-10-05T07:58:00.334Z,11.79
2022-10-05T08:00:50.291Z,11.97
2022-10-05T08:03:48.007Z,12.16
2022-10-05T08:06:35.941Z,12.35
2022-10-05T08:09:39.180Z,12.49
2022-10-05T08:12:13.384Z,12.60
2022-10-05T08:14:49.326Z,12.72
2022-10-05T08:17:39.917Z,12.82
2022-10-05T08:20:17.292Z,12.95
2022-10-05T08:22:53.588Z,13.08
2022-10-05T08:25:28.657Z,13.17
2022-10-05T08:28:05.131Z,13.27
2022-10-05T08:30:48.724Z,13.34
2022-10-05T08:33:20.382Z,13.41
2022-10-05T08:36:10.918Z,13.41
2022-10-05T08:38:40.237Z,13.45
2022-10-05T08:41:45.115Z,13.51
2022-10-05T08:44:31.908Z,13.54
2022-10-05T08:47:17.037Z,13.53
2022-10-05T08:49:44.820Z,13.48
2022-10-05T08:52:25.495Z,13.48
2022-10-05T08:55:27.423Z,13.45
2022-10-05T08:58:14.187Z,13.46
2022-10-05T09:01:14.794Z,13.51
2022-10-05T09:04:16.823Z,13.60
2022-10-05T09:07:13.816Z,13.65
2022-10-05T09:09:57.159Z,13.76
2022-10-05T09:12:46.377Z,13.84
2022-10-05T09:15:26.874Z,13.90
2022-10-05T09:18:16.935Z,13.99
2022-10-05T09:21:08.687Z,14.11
2022-10-05T09:23:44.976Z,14.24
2022-10-05T09:26:33.089Z,14.34
2022-10-05T09:29:38.948Z,14.48
2022-10-05T09:32:19.131Z,14.58
2022-10-05T09:34:53.819Z,14.68
2022-10-05T09:37:40.032Z,14.74
2022-10-05T09:40:19.866Z,14.78
2022-10-05T09:43:09.689Z,14.76
2022-10-05T09:46:05.074Z,14.67
2022-10-05T09:49:11.627Z,14.59
2022-10-05T09:51:48.887Z,14.56
2022-10-05T09:54:43.831Z,14.60
2022-10-05T09:57:52.406Z,14.66
2022-10-05T10:00:24.140Z,14.84
2022-10-05T10:02:57.964Z,14.98
2022-10-05T10:05:34.727Z,15.06
2022-10-05T10:08:22.025Z,14.98
2022-10-05T10:11:18.457Z,14.86
2022-10-05T10:13:56.000Z,14.80
2022-10-05T10:16:55.106Z,14.76
2022-10-05T10:19:44.593Z,14.79
2022-10-05T10:22:42.219Z,14.87
2022-10-05T10:25:31.918Z,15.02
2022-10-05T10:28:37.870Z,15.15
2022-10-05T10:31:58.284Z,15.21
2022-10-05T10:34:35.115Z,15.32
2022-10-05T10:37:31.360Z,15.48
2022-10-05T10:40:08.494Z,15.72
2022-10-05T10:43:14.227Z,15.89
2022-10-05T10:46:20.593Z,16.08
2022-10-05T10:49:09.691Z,16.16
2022-10-05T10:51:46.804Z,16.25
2022-10-05T10:54:41.747Z,16.31
2022-10-05T10:57:13.678Z,16.33
2022-10-05T11:00:03.670Z,16.44
2022-10-05T11:02:56.478Z,16.57
2022-10-05T11:05:31.655Z,16.73
2022-10-05T11:08:25.316Z,16.85
2022-10-05T11:10:56.266Z,16.94
2022-10-05T11:13:53.315Z,16.94
2022-10-05T11:16:46.952Z,17.01
2022-10-05T11:20:03.207Z,17.02
2022-10-05T11:22:50.359Z,16.95
2022-10-05T11:25:53.795Z,16.94
2022-10-05T11:28:34.855Z,16.88
2022-10-05T11:31:21.689Z,16.91
2022-10-05T11:34:08.680Z,17.02
2022-10-05T11:36:45.530Z,17.10
2022-10-05T11:39:33.551Z,17.15
2022-10-05T11:42:36.197Z,17.13
2022-10-05T11:45:19.404Z,17.13
2022-10-05T11:47:59.898Z,17.10
2022-10-05T11:50:58.119Z,17.06
2022-10-05T11:53:35.083Z,16.91
2022-10-05T11:56:19.374Z,16.87
2022-10-05T11:59:05.929Z,16.94
2022-10-05T12:02:15.089Z,17.05
2022-10-05T12:05:11.379Z,17.13
2022-10-05T12:08:07.115Z,17.30
2022-10-05T12:11:00.853Z,17.45
2022-10-05T12:13:28.660Z,17.55
2022-10-05T12:16:27.053Z,17.61
2022-10-05T12:19:31.741Z,17.62
2022-10-05T12:22:24.009Z,17.70
2022-10-05T12:25:06.339Z,17.82
2022-10-05T12:27:41.011Z,17.80
2022-10-05T12:30:13.636Z,17.71
2022-10-05T12:33:06.964Z,17.67
2022-10-05T12:35:49.294Z,17.62
2022-10-05T12:38:28.755Z,17.53
2022-10-05T12:41:04.630Z,17.53
2022-10-05T12:43:37.210Z,17.58
2022-10-05T12:46:26.688Z,17.65
2022-10-05T12:49:21.808Z,17.81
2022-10-05T12:52:03.677Z,17.96
2022-10-05T12:55:00.886Z,17.99
2022-10-05T12:57:38.328Z,17.89
2022-10-05T13:00:21.769Z,17.77
2022-10-05T13:02:58.130Z,17.79
2022-10-05T13:05:44.955Z,17.85
2022-10-05T13:08:41.872Z,17.82
2022-10-05T13:11:28.289Z,17.79
2022-10-05T13:14:18.274Z,17.80
2022-10-05T13:16:46.150Z,17.85
2022-10-05T13:19:35.654Z,17.82
2022-10-05T13:22:34.409Z,17.76
2022-10-05T13:25:14.430Z,17.68
2022-10-05T13:27:57.665Z,17.58
2022-10-05T13:30:25.700Z,17.46
2022-10-05T13:33:33.450Z,17.35
2022-10-05T13:36:42.949Z,17.22
2022-10-05T13:39:28.892Z,17.14
2022-10-05T13:42:09.553Z,17.05
2022-10-05T13:44:47.050Z,16.98
2022-10-05T13:47:31.794Z,16.93
2022-10-05T13:50:14.107Z,16.91
2022-10-05T13:52:50.525Z,16.90
2022-10-05T13:55:38.740Z,16.91
2022-10-05T13:58:34.809Z,16.93
2022-10-05T14:01:08.849Z,16.98
2022-10-05T14:03:38.467Z,17.07
2022-10-05T14:06:27.831Z,17.18
2022-10-05T14:09:00.055Z,17.34
2022-10-05T14:11:32.205Z,17.40
2022-10-05T14:14:21.932Z,17.51
2022-10-05T14:16:56.290Z,17.68
2022-10-05T14:19:24.306Z,17.84
2022-10-05T14:22:00.886Z,17.95
2022-10-05T14:24:43.574Z,18.05
2022-10-05T14:27:30.798Z,18.09
2022-10-05T14:30:12.388Z,18.14
2022-10-05T14:32:50.563Z,18.15
2022-10-05T14:35:23.038Z,18.19
2022-10-05T14:37:53.833Z,18.22
2022-10-05T14:40:27.547Z,18.23
2022-10-05T14:42:56.641Z,18.17
2022-10-05T14:45:29.994Z,18.10
2022-10-05T14:48:01.821Z,17.98
2022-10-05T14:50:31.582Z,17.89
2022-10-05T14:53:11.734Z,17.83
2022-10-05T14:55:53.008Z,17.76
2022-10-05T14:58:40.318Z,17.65
2022-10-05T15:01:20.465Z,17.52
2022-10-05T15:04:06.149Z,17.40
2022-10-05T15:06:47.167Z,17.27
2022-10-05T15:09:21.097Z,17.11
2022-10-05T15:11:52.601Z,16.98
2022-10-05T15:14:43.542Z,16.87
2022-10-05T15:17:27.162Z,16.73
2022-10-05T15:20:24.735Z,16.61
2022-10-05T15:23:23.949Z,16.47
2022-10-05T15:26:14.231Z,16.33
2022-10-05T15:28:48.427Z,16.18
2022-10-05T15:31:54.679Z,16.06
2022-10-05T15:34:30.814Z,15.90
2022-10-05T15:37:07.916Z,15.76
2022-10-05T15:39:44.369Z,15.61
2022-10-05T15:42:16.993Z,15.48
2022-10-05T15:45:00.005Z,15.35
2022-10-05T15:48:06.729Z,15.23
2022-10-05T15:50:55.549Z,15.14
2022-10-05T15:53:28.125Z,15.10
2022-10-05T15:56:29.145Z,15.05
2022-10-05T15:59:18.734Z,14.97
2022-10-05T16:01:56.686Z,14.88
2022-10-05T16:04:50.179Z,14.78
2022-10-05T16:07:44.720Z,14.65
2022-10-05T16:10:23.519Z,14.52
2022-10-05T16:13:06.135Z,14.41
2022-10-05T16:15:43.406Z,14.29
2022-10-05T16:18:36.004Z,14.17
2022-10-05T16:21:22.727Z,14.03
2022-10-05T16:24:20.849Z,13.89
2022-10-05T16:26:54.978Z,13.76
2022-10-05T16:29:48.154Z,13.68
2022-10-05T16:32:42.958Z,13.53
2022-10-05T16:35:36.217Z,13.40
2022-10-05T16:38:17.473Z,13.28
2022-10-05T16:41:27.574Z,13.17
2022-10-05T16:44:11.062Z,13.03
2022-10-05T16:46:58.187Z,12.91
2022-10-05T16:49:41.405Z,12.81
2022-10-05T16:52:30.220Z,12.73
2022-10-05T16:55:04.840Z,12.63
2022-10-05T16:57:46.811Z,12.49
2022-10-05T17:00:44.318Z,12.37
2022-10-05T17:03:42.425Z,12.25
2022-10-05T17:06:29.544Z,12.00
2022-10-05T17:09:29.226Z,11.78
2022-10-05T17:12:32.461Z,11.62
2022-10-05T17:15:21.124Z,11.57
2022-10-05T17:18:07.339Z,11.57
2022-10-05T17:20:44.488Z,11.59
2022-10-05T17:23:21.346Z,11.49
2022-10-05T17:25:55.524Z,11.34
2022-10-05T17:28:37.701Z,11.25
2022-10-05T17:31:13.986Z,11.18
2022-10-05T17:34:00.303Z,11.16
2022-10-05T17:36:40.585Z,11.06
2022-10-05T17:39:49.052Z,10.91
2022-10-05T17:42:26.834Z,10.72
2022-10-05T17:45:20.860Z,10.63
2022-10-05T17:47:59.614Z,10.55
2022-10-05T17:50:56.262Z,10.46
2022-10-05T17:53:56.748Z,10.41
2022-10-05T17:56:24.988Z,10.29
2022-10-05T17:58:59.859Z,10.19
2022-10-05T18:01:31.273Z,10.12
2022-10-05T18:04:12.196Z,10.12
2022-10-05T18:06:48.230Z,10.11
2022-10-05T18:09:21.561Z,10.02
2022-10-05T18:12:09.114Z,9.94
2022-10-05T18:14:58.207Z,9.81
2022-10-05T18:17:52.182Z,9.75
2022-10-05T18:20:29.852Z,9.75
2022-10-05T18:23:07.913Z,9.69
2022-10-05T18:25:55.080Z,9.57
2022-10-05T18:28:26.052Z,9.53
2022-10-05T18:31:13.165Z,9.50
2022-10-05T18:34:02.092Z,9.47
2022-10-05T18:36:43.671Z,9.42
2022-10-05T18:39:49.718Z,9.39
2022-10-05T18:42:27.492Z,9.35
2022-10-05T18:45:06.747Z,9.32
2022-10-05T18:48:07.352Z,9.29
2022-10-05T18:51:07.259Z,9.26
2022-10-05T18:54:03.749Z,9.21
2022-10-05T18:56:46.865Z,9.18
2022-10-05T18:59:36.569Z,9.14
2022-10-05T19:02:31.310Z,9.10
2022-10-05T19:05:46.272Z,9.06
2022-10-05T19:08:39.202Z,9.04
2022-10-05T19:11:19.875Z,9.00
2022-10-05T19:14:13.287Z,8.99
2022-10-05T19:16:50.900Z,8.95
2022-10-05T19:19:33.606Z,8.92
2022-10-05T19:22:39.555Z,8.88
2022-10-05T19:25:30.092Z,8.88
2022-10-05T19:28:23.418Z,8.89
2022-10-05T19:31:05.858Z,8.90
2022-10-05T19:33:36.972Z,8.91
2022-10-05T19:36:56.500Z,8.90
2022-10-05T19:39:48.238Z,8.95
2022-10-05T19:42:50.271Z,9.02
2022-10-05T19:45:27.083Z,9.26
2022-10-05T19:47:57.849Z,9.38
2022-10-05T19:50:30.491Z,9.41
2022-10-05T19:53:05.033Z,9.47
2022-10-05T19:55:41.810Z,9.57
2022-10-05T19:58:30.089Z,9.69
2022-10-05T20:01:11.351Z,9.81
2022-10-05T20:03:41.402Z,9.90
2022-10-05T20:06:11.085Z,9.91
2022-10-05T20:08:47.365Z,9.93
2022-10-05T20:11:27.727Z,9.86
2022-10-05T20:13:55.497Z,9.75
2022-10-05T20:16:44.967Z,9.73
2022-10-05T20:19:50.086Z,9.73
2022-10-05T20:22:34.837Z,9.66
2022-10-05T20:25:05.923Z,9.67
2022-10-05T20:27:44.495Z,9.67
2022-10-05T20:30:17.075Z,9.65
2022-10-05T20:32:49.609Z,9.57
2022-10-05T20:35:23.363Z,9.57
2022-10-05T20:37:51.267Z,9.58
2022-10-05T20:40:20.403Z,9.64
2022-10-05T20:42:48.311Z,9.62
2022-10-05T20:45:16.193Z,9.60
2022-10-05T20:47:46.830Z,9.60
2022-10-05T20:50:15.452Z,9.63
2022-10-05T20:52:43.384Z,9.65
2022-10-05T20:55:12.421Z,9.72
2022-10-05T20:57:46.213Z,9.79
2022-10-05T21:00:14.442Z,9.84
2022-10-05T21:02:42.311Z,9.87
2022-10-05T21:05:10.430Z,9.87
2022-10-05T21:07:38.412Z,9.86
2022-10-05T21:10:06.948Z,9.86
2022-10-05T21:12:34.939Z,9.84
2022-10-05T21:15:06.201Z,9.74
2022-10-05T21:17:34.782Z,9.59
2022-10-05T21:20:02.717Z,9.50
2022-10-05T21:22:31.217Z,9.49
2022-10-05T21:24:59.119Z,9.50
2022-10-05T21:27:27.028Z,9.49
2022-10-05T21:29:54.941Z,9.43
2022-10-05T21:32:22.875Z,9.35
2022-10-05T21:34:50.723Z,9.27
2022-10-05T21:37:19.979Z,9.27
2022-10-05T21:39:48.090Z,9.28
2022-10-05T21:42:15.960Z,9.23
2022-10-05T21:44:43.819Z,9.12
2022-10-05T21:47:11.737Z,9.08
2022-10-05T21:49:41.313Z,9.07
2022-10-05T21:52:09.212Z,9.02
2022-10-05T21:54:37.028Z,9.01
2022-10-05T21:57:05.307Z,8.91
2022-10-05T21:59:34.560Z,8.81
2022-10-05T22:02:02.520Z,8.72
2022-10-05T22:04:30.445Z,8.68
2022-10-05T22:06:58.405Z,8.60
2022-10-05T22:09:26.391Z,8.44
2022-10-05T22:11:55.040Z,8.32
2022-10-05T22:14:22.952Z,8.16
2022-10-05T22:16:50.907Z,8.04
2022-10-05T22:19:20.534Z,7.92
2022-10-05T22:21:48.415Z,7.84
2022-10-05T22:24:16.318Z,7.76
2022-10-05T22:26:47.804Z,7.66
2022-10-05T22:29:17.041Z,7.59
2022-10-05T22:31:48.947Z,7.52
2022-10-05T22:34:18.310Z,7.42
2022-10-05T22:36:47.622Z,7.41
2022-10-05T22:39:16.876Z,7.51
2022-10-05T22:41:44.960Z,7.49
2022-10-05T22:44:12.909Z,7.42
2022-10-05T22:46:40.829Z,7.45
2022-10-05T22:49:08.930Z,7.49
2022-10-05T22:51:36.835Z,7.52
2022-10-05T22:54:04.895Z,7.59
2022-10-05T22:56:32.782Z,7.63
2022-10-05T22:59:00.700Z,7.73
2022-10-05T23:01:28.610Z,7.75
2022-10-05T23:03:57.392Z,7.69
2022-10-05T23:06:28.314Z,7.54
2022-10-05T23:08:56.976Z,7.38
2022-10-05T23:11:27.259Z,7.32
2022-10-05T23:13:57.108Z,7.21
2022-10-05T23:16:27.774Z,7.14
2022-10-05T23:18:56.444Z,7.03
2022-10-05T23:21:27.198Z,6.90
2022-10-05T23:23:55.098Z,6.78
2022-10-05T23:26:25.474Z,6.72
2022-10-05T23:28:54.273Z,6.63
2022-10-05T23:31:25.807Z,6.57
2022-10-05T23:33:54.204Z,6.54
2022-10-05T23:36:25.179Z,6.51
2022-10-05T23:38:53.523Z,6.44
2022-10-05T23:41:21.401Z,6.40
2022-10-05T23:43:50.096Z,6.38
2022-10-05T23:46:18.203Z,6.33
2022-10-05T23:48:46.151Z,6.35
2022-10-05T23:51:14.508Z,6.42
2022-10-05T23:53:42.634Z,6.50
2022-10-05T23:56:11.153Z,6.53
2022-10-05T23:58:39.682Z,6.55
